createdAt,value
2022-12-14T00:01:35.297Z,13.18
2022-12-14T00:04:04.957Z,14.63
2022-12-14T00:06:35.615Z,14.40
2022-12-14T00:09:06.091Z,12.93
2022-12-14T00:11:37.201Z,13.52
2022-12-14T00:16:34.528Z,13.05
2022-12-14T00:19:08.863Z,13.25
2022-12-14T00:21:40.734Z,13.13
2022-12-14T00:24:10.610Z,14.43
2022-12-14T00:26:38.739Z,13.48
2022-12-14T00:29:08.430Z,13.40
2022-12-14T00:31:39.077Z,13.25
2022-12-14T00:34:08.126Z,13.48
2022-12-14T00:36:41.422Z,13.88
2022-12-14T00:39:10.785Z,14.32
2022-12-14T00:41:39.906Z,13.40
2022-12-14T00:44:08.569Z,13.02
2022-12-14T00:46:36.045Z,14.15
2022-12-14T00:49:08.309Z,14.00
2022-12-14T00:51:38.780Z,13.85
2022-12-14T00:54:07.268Z,14.25
2022-12-14T00:56:36.747Z,13.23
2022-12-14T00:59:08.324Z,12.68
2022-12-14T01:01:42.548Z,12.98
2022-12-14T01:04:22.102Z,13.60
2022-12-14T01:06:53.908Z,12.60
2022-12-14T01:09:23.643Z,13.88
2022-12-14T01:11:54.728Z,12.63
2022-12-14T01:14:32.808Z,13.30
2022-12-14T01:17:02.841Z,12.95
2022-12-14T01:19:34.412Z,13.15
2022-12-14T01:22:06.517Z,13.60
2022-12-14T01:24:55.628Z,13.48
2022-12-14T01:27:24.450Z,13.65
2022-12-14T01:29:51.753Z,13.07
2022-12-14T01:32:25.299Z,13.60
2022-12-14T01:34:55.810Z,12.52
2022-12-14T01:37:26.836Z,13.95
2022-12-14T01:39:55.647Z,12.38
2022-12-14T01:42:25.136Z,13.15
2022-12-14T01:44:58.216Z,13.43
2022-12-14T01:47:37.580Z,12.57
2022-12-14T01:50:41.033Z,12.30
2022-12-14T01:53:20.665Z,12.15
2022-12-14T01:55:52.778Z,12.73
2022-12-14T01:58:30.577Z,12.05
2022-12-14T02:01:02.215Z,11.20
2022-12-14T02:03:46.921Z,11.30
2022-12-14T02:06:24.310Z,11.63
2022-12-14T02:08:55.196Z,11.35
2022-12-14T02:11:43.888Z,13.23
2022-12-14T02:14:12.147Z,11.90
2022-12-14T02:16:41.559Z,11.05
2022-12-14T02:19:18.116Z,11.80
2022-12-14T02:22:23.910Z,11.70
2022-12-14T02:25:18.583Z,11.60
2022-12-14T02:28:07.414Z,11.85
2022-12-14T02:30:51.688Z,11.95
2022-12-14T02:33:40.644Z,11.93
2022-12-14T02:36:38.046Z,11.68
2022-12-14T02:39:37.886Z,10.93
2022-12-14T02:42:18.808Z,11.07
2022-12-14T02:45:27.871Z,10.30
2022-12-14T02:48:04.514Z,10.85
2022-12-14T02:50:51.154Z,11.40
2022-12-14T02:53:36.598Z,10.40
2022-12-14T02:56:16.164Z,10.07
2022-12-14T03:01:33.186Z,11.10
2022-12-14T03:04:04.424Z,12.60
2022-12-14T03:06:31.469Z,10.82
2022-12-14T03:09:06.404Z,10.90
2022-12-14T03:12:06.094Z,10.98
2022-12-14T03:17:28.163Z,11.38
2022-12-14T03:20:17.106Z,11.05
2022-12-14T03:23:19.069Z,11.23
2022-12-14T03:26:06.016Z,11.25
2022-12-14T03:28:58.242Z,10.60
2022-12-14T03:31:56.305Z,11.13
2022-12-14T03:34:33.444Z,11.60
2022-12-14T03:37:41.461Z,10.40
2022-12-14T03:40:16.099Z,10.23
2022-12-14T03:43:09.528Z,11.40
2022-12-14T03:46:20.390Z,11.05
2022-12-14T03:48:53.752Z,10.88
2022-12-14T03:51:52.227Z,11.48
2022-12-14T03:54:45.899Z,10.85
2022-12-14T03:57:45.945Z,10.70
2022-12-14T04:00:18.405Z,11.20
2022-12-14T04:02:54.606Z,11.05
2022-12-14T04:05:33.654Z,10.00
2022-12-14T04:08:24.229Z,10.43
2022-12-14T04:11:14.814Z,11.07
2022-12-14T04:14:15.839Z,10.23
2022-12-14T04:17:06.404Z,10.77
2022-12-14T04:19:58.755Z,11.25
2022-12-14T04:22:31.558Z,10.63
2022-12-14T04:25:30.467Z,10.68
2022-12-14T04:28:46.142Z,10.20
2022-12-14T04:31:23.695Z,10.32
2022-12-14T04:33:55.938Z,11.73
2022-12-14T04:36:32.799Z,10.38
2022-12-14T04:39:13.657Z,9.43
2022-12-14T04:41:45.501Z,9.95
2022-12-14T04:44:28.795Z,9.55
2022-12-14T04:47:01.172Z,9.45
2022-12-14T04:49:55.764Z,13.15
2022-12-14T04:52:42.615Z,10.77
2022-12-14T04:55:26.251Z,9.55
2022-12-14T04:58:17.011Z,9.55
2022-12-14T05:01:14.059Z,10.20
2022-12-14T05:07:06.397Z,10.38
2022-12-14T05:10:04.644Z,10.73
2022-12-14T05:12:34.098Z,10.32
2022-12-14T05:15:10.434Z,9.82
2022-12-14T05:17:39.221Z,9.23
2022-12-14T05:20:12.658Z,9.65
2022-12-14T05:22:40.219Z,10.30
2022-12-14T05:25:07.265Z,9.75
2022-12-14T05:27:33.961Z,9.43
2022-12-14T05:30:00.665Z,9.65
2022-12-14T05:32:29.121Z,9.75
2022-12-14T05:34:55.996Z,9.50
2022-12-14T05:37:22.677Z,8.77
2022-12-14T05:39:49.472Z,9.48
2022-12-14T05:42:16.635Z,8.60
2022-12-14T05:44:43.325Z,8.60
2022-12-14T05:47:10.661Z,9.27
2022-12-14T05:49:37.374Z,9.13
2022-12-14T05:52:04.275Z,9.00
2022-12-14T05:54:31.014Z,8.85
2022-12-14T05:56:57.835Z,8.95
2022-12-14T05:59:25.579Z,10.65
2022-12-14T06:01:52.324Z,8.93
2022-12-14T06:04:19.241Z,8.80
2022-12-14T06:06:46.079Z,9.85
2022-12-14T06:09:15.933Z,8.32
2022-12-14T06:11:43.947Z,9.02
2022-12-14T06:14:11.873Z,9.30
2022-12-14T06:16:43.348Z,9.50
2022-12-14T06:19:11.083Z,8.50
2022-12-14T06:21:39.905Z,9.75
2022-12-14T06:24:07.607Z,9.50
2022-12-14T06:26:41.223Z,8.55
2022-12-14T06:29:13.254Z,9.20
2022-12-14T06:31:39.956Z,9.40
2022-12-14T06:34:06.907Z,9.35
2022-12-14T06:36:36.267Z,9.30
2022-12-14T06:39:07.191Z,12.48
2022-12-14T06:44:10.013Z,10.70
2022-12-14T06:46:37.496Z,8.40
2022-12-14T06:49:05.931Z,9.20
2022-12-14T06:51:33.658Z,9.25
2022-12-14T06:54:00.400Z,9.18
2022-12-14T06:56:27.880Z,9.90
2022-12-14T06:58:55.411Z,9.32
2022-12-14T07:01:24.654Z,8.75
2022-12-14T07:03:54.664Z,9.95
2022-12-14T07:06:22.974Z,10.00
2022-12-14T07:08:52.920Z,7.93
2022-12-14T07:11:19.660Z,8.20
2022-12-14T07:13:48.892Z,9.10
2022-12-14T07:16:19.081Z,8.57
2022-12-14T07:18:46.261Z,8.63
2022-12-14T07:21:14.879Z,9.07
2022-12-14T07:23:44.122Z,8.90
2022-12-14T07:26:27.614Z,8.73
2022-12-14T07:28:55.047Z,9.07
2022-12-14T07:31:27.149Z,9.68
2022-12-14T07:33:59.099Z,11.27
2022-12-14T07:36:27.726Z,8.20
2022-12-14T07:38:55.818Z,9.10
2022-12-14T07:41:27.942Z,9.02
2022-12-14T07:43:56.589Z,8.77
2022-12-14T07:46:27.698Z,8.43
2022-12-14T07:48:56.797Z,8.43
2022-12-14T07:51:26.545Z,9.13
2022-12-14T07:53:53.399Z,9.45
2022-12-14T07:56:26.463Z,9.27
2022-12-14T07:58:56.115Z,10.18
2022-12-14T08:01:28.962Z,10.75
2022-12-14T08:04:10.797Z,9.52
2022-12-14T08:06:38.698Z,10.77
2022-12-14T08:09:06.973Z,10.15
2022-12-14T08:11:33.981Z,10.90
2022-12-14T08:14:03.293Z,11.65
2022-12-14T08:16:32.120Z,10.60
2022-12-14T08:19:00.109Z,11.25
2022-12-14T08:21:27.725Z,11.48
2022-12-14T08:23:55.757Z,10.20
2022-12-14T08:26:24.051Z,10.88
2022-12-14T08:28:51.919Z,11.13
2022-12-14T08:31:21.402Z,10.68
2022-12-14T08:33:49.141Z,11.13
2022-12-14T08:36:20.375Z,10.63
2022-12-14T08:38:52.828Z,10.90
2022-12-14T08:41:19.586Z,11.45
2022-12-14T08:43:50.492Z,11.40
2022-12-14T08:48:44.432Z,10.88
2022-12-14T08:51:12.305Z,11.48
2022-12-14T08:53:39.488Z,11.90
2022-12-14T08:56:12.356Z,10.95
2022-12-14T08:58:40.479Z,10.98
2022-12-14T09:01:15.813Z,12.35
2022-12-14T09:03:44.750Z,10.88
2022-12-14T09:06:14.146Z,10.30
2022-12-14T09:08:41.149Z,12.65
2022-12-14T09:11:14.602Z,11.90
2022-12-14T09:13:42.396Z,11.43
2022-12-14T09:16:13.001Z,13.13
2022-12-14T09:18:40.567Z,11.85
2022-12-14T09:21:08.144Z,11.32
2022-12-14T09:23:35.989Z,11.05
2022-12-14T09:26:08.362Z,10.95
2022-12-14T09:28:37.075Z,12.57
2022-12-14T09:31:10.763Z,12.07
2022-12-14T09:33:37.617Z,11.88
2022-12-14T09:36:10.548Z,12.07
2022-12-14T09:38:39.215Z,10.70
2022-12-14T09:41:18.544Z,11.43
2022-12-14T09:43:54.430Z,10.52
2022-12-14T09:46:31.553Z,11.32
2022-12-14T09:48:59.187Z,12.02
2022-12-14T09:51:35.161Z,11.85
2022-12-14T09:54:07.082Z,13.45
2022-12-14T09:56:34.665Z,12.57
2022-12-14T09:59:03.181Z,12.60
2022-12-14T10:01:38.814Z,12.57
2022-12-14T10:04:14.886Z,11.70
2022-12-14T10:06:47.581Z,13.20
2022-12-14T10:09:29.327Z,12.82
2022-12-14T10:12:15.529Z,11.93
2022-12-14T10:15:05.283Z,12.10
2022-12-14T10:18:03.330Z,12.30
2022-12-14T10:20:42.243Z,12.32
2022-12-14T10:23:21.090Z,12.48
2022-12-14T10:25:52.656Z,11.57
2022-12-14T10:28:29.211Z,12.97
2022-12-14T10:30:59.186Z,12.07
2022-12-14T10:33:29.558Z,12.50
2022-12-14T10:36:08.039Z,12.05
2022-12-14T10:38:45.103Z,13.07
2022-12-14T10:44:13.623Z,13.27
2022-12-14T10:46:57.107Z,13.45
2022-12-14T10:49:30.015Z,12.65
2022-12-14T10:52:14.757Z,13.10
2022-12-14T10:54:49.653Z,12.38
2022-12-14T10:57:24.746Z,13.55
2022-12-14T11:00:05.717Z,12.52
2022-12-14T11:02:39.390Z,11.90
2022-12-14T11:05:38.887Z,11.95
2022-12-14T11:08:07.294Z,11.38
2022-12-14T11:10:41.710Z,13.00
2022-12-14T11:13:16.894Z,12.85
2022-12-14T11:15:53.182Z,12.43
2022-12-14T11:18:20.064Z,12.63
2022-12-14T11:20:52.774Z,13.20
2022-12-14T11:23:24.722Z,12.80
2022-12-14T11:25:55.518Z,12.98
2022-12-14T11:28:36.979Z,13.38
2022-12-14T11:31:07.748Z,12.93
2022-12-14T11:33:55.804Z,12.85
2022-12-14T11:36:34.374Z,12.13
2022-12-14T11:39:12.835Z,11.68
2022-12-14T11:42:01.454Z,11.77
2022-12-14T11:44:34.574Z,12.55
2022-12-14T11:47:05.171Z,12.40
2022-12-14T11:49:41.904Z,11.63
2022-12-14T11:52:13.721Z,12.27
2022-12-14T11:54:49.481Z,12.32
2022-12-14T11:57:30.930Z,12.25
2022-12-14T12:00:04.679Z,11.25
2022-12-14T12:02:38.555Z,12.40
2022-12-14T12:05:11.272Z,12.18
2022-12-14T12:07:59.439Z,12.80
2022-12-14T12:10:50.084Z,11.27
2022-12-14T12:16:13.540Z,11.75
2022-12-14T12:19:14.275Z,12.20
2022-12-14T12:21:44.739Z,11.35
2022-12-14T12:24:11.565Z,12.13
2022-12-14T12:26:52.348Z,11.95
2022-12-14T12:29:25.286Z,11.48
2022-12-14T12:32:06.163Z,12.70
2022-12-14T12:34:34.869Z,12.77
2022-12-14T12:40:02.273Z,11.88
2022-12-14T12:42:30.485Z,12.80
2022-12-14T12:45:13.964Z,10.60
2022-12-14T12:47:48.253Z,13.18
2022-12-14T12:50:24.419Z,13.48
2022-12-14T12:53:03.661Z,11.07
2022-12-14T12:55:36.770Z,11.48
2022-12-14T12:58:09.420Z,11.95
2022-12-14T13:00:38.358Z,13.23
2022-12-14T13:03:24.690Z,12.93
2022-12-14T13:05:55.120Z,11.90
2022-12-14T13:08:35.772Z,12.15
2022-12-14T13:11:26.006Z,11.10
2022-12-14T13:13:58.523Z,11.20
2022-12-14T13:16:29.425Z,12.57
2022-12-14T13:21:52.515Z,12.98
2022-12-14T13:24:21.872Z,13.55
2022-12-14T13:27:26.528Z,13.32
2022-12-14T13:30:17.523Z,11.70
2022-12-14T13:32:47.327Z,12.80
2022-12-14T13:35:16.776Z,12.30
2022-12-14T13:38:06.492Z,12.50
2022-12-14T13:40:41.660Z,11.60
2022-12-14T13:43:30.034Z,14.20
2022-12-14T13:46:04.091Z,13.10
2022-12-14T13:48:39.397Z,12.43
2022-12-14T13:51:09.126Z,14.55
2022-12-14T13:53:50.257Z,13.13
2022-12-14T13:56:44.619Z,13.77
2022-12-14T13:59:33.079Z,14.57
2022-12-14T14:02:01.837Z,12.50
2022-12-14T14:04:33.514Z,13.27
2022-12-14T14:07:23.531Z,13.32
2022-12-14T14:09:56.297Z,11.85
2022-12-14T14:12:30.670Z,12.32
2022-12-14T14:14:57.316Z,13.00
2022-12-14T14:17:35.177Z,12.50
2022-12-14T14:20:24.506Z,12.82
2022-12-14T14:23:16.240Z,12.30
2022-12-14T14:25:52.961Z,12.23
2022-12-14T14:28:23.162Z,15.82
2022-12-14T14:30:56.990Z,12.13
2022-12-14T14:33:46.010Z,12.30
2022-12-14T14:36:33.426Z,14.02
2022-12-14T14:39:24.517Z,13.85
2022-12-14T14:41:54.798Z,13.60
2022-12-14T14:44:40.582Z,13.77
2022-12-14T14:47:22.346Z,14.05
2022-12-14T14:49:55.975Z,14.35
2022-12-14T14:52:38.855Z,12.60
2022-12-14T14:58:24.284Z,13.23
2022-12-14T15:01:16.361Z,13.32
2022-12-14T15:04:04.308Z,13.35
2022-12-14T15:06:41.810Z,12.75
2022-12-14T15:09:31.963Z,13.18
2022-12-14T15:12:04.578Z,13.33
2022-12-14T15:14:43.228Z,13.88
2022-12-14T15:17:19.462Z,14.30
2022-12-14T15:19:53.079Z,13.23
2022-12-14T15:22:22.655Z,13.73
2022-12-14T15:24:53.231Z,14.10
2022-12-14T15:27:26.309Z,14.60
2022-12-14T15:29:56.680Z,14.70
2022-12-14T15:32:25.250Z,13.95
2022-12-14T15:34:59.649Z,13.20
2022-12-14T15:37:28.559Z,15.02
2022-12-14T15:40:12.957Z,13.68
2022-12-14T15:43:18.890Z,14.88
2022-12-14T15:45:48.568Z,14.73
2022-12-14T15:48:30.061Z,13.95
2022-12-14T15:51:16.818Z,14.32
2022-12-14T15:53:50.187Z,13.85
2022-12-14T15:56:34.607Z,14.70
2022-12-14T15:59:13.385Z,15.77
2022-12-14T16:01:53.724Z,14.45
2022-12-14T16:04:25.706Z,13.82
2022-12-14T16:07:08.103Z,14.40
2022-12-14T16:09:40.486Z,13.82
2022-12-14T16:12:09.005Z,14.38
2022-12-14T16:15:00.382Z,14.15
2022-12-14T16:17:32.287Z,14.93
2022-12-14T16:20:02.337Z,14.05
2022-12-14T16:22:31.868Z,14.93
2022-12-14T16:25:18.130Z,14.13
2022-12-14T16:27:50.296Z,13.45
2022-12-14T16:30:17.606Z,16.05
2022-12-14T16:32:50.161Z,13.90
2022-12-14T16:35:24.721Z,14.70
2022-12-14T16:37:54.060Z,13.57
2022-12-14T16:40:53.641Z,13.52
2022-12-14T16:43:35.522Z,14.05
2022-12-14T16:46:08.062Z,14.57
2022-12-14T16:48:44.048Z,14.18
2022-12-14T16:51:32.961Z,13.85
2022-12-14T16:54:25.778Z,14.23
2022-12-14T16:56:57.492Z,14.05
2022-12-14T16:59:36.272Z,14.60
2022-12-14T17:02:04.149Z,15.68
2022-12-14T17:04:39.153Z,13.52
2022-12-14T17:07:05.919Z,15.57
2022-12-14T17:09:33.809Z,14.32
2022-12-14T17:12:02.633Z,15.23
2022-12-14T17:14:29.523Z,13.80
2022-12-14T17:17:01.432Z,14.57
2022-12-14T17:19:39.162Z,14.88
2022-12-14T17:22:16.627Z,16.30
2022-12-14T17:24:47.757Z,13.88
2022-12-14T17:27:19.078Z,14.90
2022-12-14T17:29:46.117Z,14.75
2022-12-14T17:32:15.372Z,14.88
2022-12-14T17:34:45.504Z,15.45
2022-12-14T17:37:21.805Z,15.45
2022-12-14T17:39:49.351Z,14.40
2022-12-14T17:42:20.439Z,13.55
2022-12-14T17:44:58.376Z,15.10
2022-12-14T17:47:25.897Z,14.27
2022-12-14T17:49:52.729Z,14.02
2022-12-14T17:52:24.475Z,15.48
2022-12-14T17:54:51.411Z,15.00
2022-12-14T17:57:20.672Z,16.95
2022-12-14T17:59:48.047Z,15.75
2022-12-14T18:02:31.090Z,16.15
2022-12-14T18:04:58.063Z,15.13
2022-12-14T18:07:24.847Z,16.40
2022-12-14T18:09:53.575Z,15.52
2022-12-14T18:12:23.603Z,16.95
2022-12-14T18:14:51.103Z,17.05
2022-12-14T18:17:19.276Z,16.35
2022-12-14T18:19:47.874Z,17.23
2022-12-14T18:22:16.780Z,17.50
2022-12-14T18:24:43.706Z,17.98
2022-12-14T18:27:14.244Z,16.70
2022-12-14T18:29:41.158Z,17.02
2022-12-14T18:32:13.166Z,17.67
2022-12-14T18:34:40.202Z,15.88
2022-12-14T18:37:07.121Z,15.65
2022-12-14T18:39:33.791Z,17.23
2022-12-14T18:42:02.880Z,17.50
2022-12-14T18:44:29.898Z,17.55
2022-12-14T18:47:05.518Z,16.35
2022-12-14T18:49:43.305Z,19.30
2022-12-14T18:52:14.440Z,18.95
2022-12-14T18:54:42.557Z,18.88
2022-12-14T18:57:11.709Z,19.30
2022-12-14T18:59:42.717Z,17.02
2022-12-14T19:02:20.902Z,19.58
2022-12-14T19:04:52.478Z,20.60
2022-12-14T19:07:20.530Z,21.65
2022-12-14T19:09:52.448Z,21.05
2022-12-14T19:12:22.488Z,19.48
2022-12-14T19:15:11.655Z,19.17
2022-12-14T19:17:42.240Z,19.73
2022-12-14T19:20:14.308Z,20.58
2022-12-14T19:28:32.117Z,21.00
2022-12-14T19:33:46.953Z,19.05
2022-12-14T19:36:41.807Z,19.52
2022-12-14T19:39:25.444Z,18.48
2022-12-14T19:41:54.380Z,18.70
2022-12-14T19:44:45.244Z,17.95
2022-12-14T19:47:28.220Z,20.48
2022-12-14T19:52:41.687Z,19.08
2022-12-14T19:55:09.436Z,17.75
2022-12-14T20:00:34.736Z,19.08
2022-12-14T20:03:22.231Z,19.80
2022-12-14T20:06:19.376Z,17.50
2022-12-14T20:08:49.535Z,18.92
2022-12-14T20:11:17.433Z,18.10
2022-12-14T20:13:55.014Z,18.20
2022-12-14T20:16:34.463Z,19.25
2022-12-14T20:19:06.347Z,17.90
2022-12-14T20:21:36.925Z,17.33
2022-12-14T20:24:04.456Z,20.58
2022-12-14T20:26:31.970Z,20.35
2022-12-14T20:29:06.842Z,18.33
2022-12-14T20:31:35.546Z,18.52
2022-12-14T20:34:09.801Z,19.80
2022-12-14T20:36:39.031Z,19.50
2022-12-14T20:39:09.864Z,18.42
2022-12-14T20:41:38.435Z,18.88
2022-12-14T20:44:14.724Z,17.25
2022-12-14T20:46:47.388Z,18.92
2022-12-14T20:52:10.407Z,17.40
2022-12-14T20:54:55.621Z,17.67
2022-12-14T20:57:28.673Z,19.02
2022-12-14T21:00:20.288Z,18.30
2022-12-14T21:09:03.516Z,17.98
2022-12-14T21:11:52.025Z,18.90
2022-12-14T21:14:24.558Z,18.35
2022-12-14T21:16:54.921Z,18.95
2022-12-14T21:19:25.912Z,18.20
2022-12-14T21:21:54.425Z,18.40
2022-12-14T21:27:23.291Z,17.80
2022-12-14T21:30:01.867Z,18.77
2022-12-14T21:32:37.704Z,19.88
2022-12-14T21:38:04.653Z,17.90
2022-12-14T21:43:34.538Z,18.88
2022-12-14T21:46:03.348Z,20.25
2022-12-14T21:48:34.155Z,20.38
2022-12-14T21:53:58.867Z,17.50
2022-12-14T21:56:56.145Z,20.10
2022-12-14T21:59:35.011Z,18.00
2022-12-14T22:02:27.564Z,20.63
2022-12-14T22:05:01.744Z,18.65
2022-12-14T22:07:42.910Z,18.52
2022-12-14T22:10:17.775Z,19.00
2022-12-14T22:12:58.876Z,18.48
2022-12-14T22:15:26.517Z,20.15
2022-12-14T22:17:57.788Z,20.15
2022-12-14T22:20:26.675Z,20.95
2022-12-14T22:22:55.077Z,22.17
2022-12-14T22:28:06.146Z,21.77
2022-12-14T22:30:43.202Z,20.40
2022-12-14T22:33:13.617Z,20.52
2022-12-14T22:35:43.313Z,20.95
2022-12-14T22:38:12.663Z,21.27
2022-12-14T22:40:45.530Z,20.17
2022-12-14T22:43:17.772Z,20.85
2022-12-14T22:48:36.517Z,21.55
2022-12-14T22:51:29.408Z,20.63
2022-12-14T22:54:01.321Z,21.00
2022-12-14T22:57:08.363Z,20.48
2022-12-14T23:00:07.212Z,20.25
2022-12-14T23:02:47.590Z,20.30
2022-12-14T23:07:51.506Z,20.83
2022-12-14T23:11:04.929Z,20.73
2022-12-14T23:14:01.444Z,19.27
2022-12-14T23:16:55.259Z,21.92
2022-12-14T23:19:47.286Z,21.23
2022-12-14T23:22:49.816Z,20.48
2022-12-14T23:25:35.976Z,21.35
2022-12-14T23:28:39.717Z,22.25
2022-12-14T23:31:37.120Z,21.10
2022-12-14T23:34:23.547Z,21.58
2022-12-14T23:37:17.982Z,21.63
2022-12-14T23:40:07.979Z,21.23
2022-12-14T23:42:55.711Z,22.50
2022-12-14T23:45:42.799Z,21.77
2022-12-14T23:48:32.450Z,20.38
2022-12-14T23:51:22.979Z,21.42
2022-12-14T23:54:12.477Z,23.67
2022-12-14T23:56:58.867Z,23.83
2022-12-14T23:59:49.660Z,21.75
